sensor_id;sensor_type;location;lat;lon;timestamp;pressure;altitude;pressure_sealevel;temperature;humidity
82931;BME280;72705;53.346;10.248;2024-03-25T00:01:34;99992.88;;;5.33;100.00
82931;BME280;72705;53.346;10.248;2024-03-25T00:03:59;99992.75;;;5.35;100.00
82931;BME280;72705;53.346;10.248;2024-03-25T00:06:25;100001.16;;;5.40;100.00
82931;BME280;72705;53.346;10.248;2024-03-25T00:08:50;100009.31;;;5.38;100.00
82931;BME280;72705;53.346;10.248;2024-03-25T00:11:15;100007.34;;;5.40;100.00
82931;BME280;72705;53.346;10.248;2024-03-25T00:13:41;100012.97;;;5.37;100.00
82931;BME280;72705;53.346;10.248;2024-03-25T00:16:06;100029.56;;;5.41;100.00
82931;BME280;72705;53.346;10.248;2024-03-25T00:18:33;100031.09;;;5.43;100.00
82931;BME280;72705;53.346;10.248;2024-03-25T00:21:00;100018.63;;;5.34;100.00
82931;BME280;72705;53.346;10.248;2024-03-25T00:23:25;100028.34;;;5.35;100.00
82931;BME280;72705;53.346;10.248;2024-03-25T00:25:50;100017.53;;;5.27;100.00
82931;BME280;72705;53.346;10.248;2024-03-25T00:28:17;100027.50;;;5.25;100.00
82931;BME280;72705;53.346;10.248;2024-03-25T00:30:45;100029.06;;;5.27;100.00
82931;BME280;72705;53.346;10.248;2024-03-25T00:33:10;100027.25;;;5.28;100.00
82931;BME280;72705;53.346;10.248;2024-03-25T00:35:36;100025.84;;;5.24;100.00
82931;BME280;72705;53.346;10.248;2024-03-25T00:38:01;100035.84;;;5.22;100.00
82931;BME280;72705;53.346;10.248;2024-03-25T00:40:28;100031.47;;;5.21;100.00
82931;BME280;72705;53.346;10.248;2024-03-25T00:42:53;100038.78;;;5.19;100.00
82931;BME280;72705;53.346;10.248;2024-03-25T00:45:18;100044.44;;;5.16;100.00
82931;BME280;72705;53.346;10.248;2024-03-25T00:47:44;100046.00;;;5.18;100.00
82931;BME280;72705;53.346;10.248;2024-03-25T00:50:09;100043.16;;;5.20;100.00
82931;BME280;72705;53.346;10.248;2024-03-25T00:52:35;100041.47;;;5.19;100.00
82931;BME280;72705;53.346;10.248;2024-03-25T00:55:01;100046.00;;;5.18;100.00
82931;BME280;72705;53.346;10.248;2024-03-25T00:57:26;100037.00;;;5.10;100.00
82931;BME280;72705;53.346;10.248;2024-03-25T00:59:51;100060.88;;;5.21;100.00
82931;BME280;72705;53.346;10.248;2024-03-25T01:02:17;100051.16;;;5.20;100.00
82931;BME280;72705;53.346;10.248;2024-03-25T01:04:42;100064.72;;;5.18;100.00
82931;BME280;72705;53.346;10.248;2024-03-25T01:07:08;100064.78;;;5.26;100.00
82931;BME280;72705;53.346;10.248;2024-03-25T01:09:35;100068.75;;;5.22;100.00
82931;BME280;72705;53.346;10.248;2024-03-25T01:12:01;100060.88;;;5.21;100.00
82931;BME280;72705;53.346;10.248;2024-03-25T01:14:27;100067.91;;;5.22;100.00
82931;BME280;72705;53.346;10.248;2024-03-25T01:16:52;100075.94;;;5.22;100.00
82931;BME280;72705;53.346;10.248;2024-03-25T01:19:18;100073.84;;;5.16;100.00
82931;BME280;72705;53.346;10.248;2024-03-25T01:21:43;100069.06;;;5.10;100.00
82931;BME280;72705;53.346;10.248;2024-03-25T01:24:09;100072.47;;;5.12;100.00
82931;BME280;72705;53.346;10.248;2024-03-25T01:26:36;100072.72;;;5.09;100.00
82931;BME280;72705;53.346;10.248;2024-03-25T01:29:01;100069.66;;;5.04;100.00
82931;BME280;72705;53.346;10.248;2024-03-25T01:31:27;100056.72;;;4.99;100.00
82931;BME280;72705;53.346;10.248;2024-03-25T01:33:54;100064.31;;;5.04;100.00
82931;BME280;72705;53.346;10.248;2024-03-25T01:36:19;100069.94;;;5.01;100.00
82931;BME280;72705;53.346;10.248;2024-03-25T01:38:44;100075.28;;;5.01;100.00
82931;BME280;72705;53.346;10.248;2024-03-25T01:41:11;100079.50;;;5.03;100.00
82931;BME280;72705;53.346;10.248;2024-03-25T01:43:37;100083.44;;;4.99;100.00
82931;BME280;72705;53.346;10.248;2024-03-25T01:46:03;100078.66;;;5.03;100.00
82931;BME280;72705;53.346;10.248;2024-03-25T01:48:29;100080.59;;;5.10;100.00
82931;BME280;72705;53.346;10.248;2024-03-25T01:50:55;100087.91;;;5.08;100.00
82931;BME280;72705;53.346;10.248;2024-03-25T01:53:22;100093.56;;;5.05;100.00
82931;BME280;72705;53.346;10.248;2024-03-25T01:55:48;100092.72;;;5.05;100.00
82931;BME280;72705;53.346;10.248;2024-03-25T01:58:13;100098.59;;;5.08;100.00
82931;BME280;72705;53.346;10.248;2024-03-25T02:00:39;100099.75;;;5.06;100.00
82931;BME280;72705;53.346;10.248;2024-03-25T02:03:05;100098.06;;;5.05;100.00
82931;BME280;72705;53.346;10.248;2024-03-25T02:05:31;100095.53;;;5.03;100.00
82931;BME280;72705;53.346;10.248;2024-03-25T02:07:56;100099.44;;;5.09;100.00
82931;BME280;72705;53.346;10.248;2024-03-25T02:10:22;100102.44;;;5.06;100.00
82931;BME280;72705;53.346;10.248;2024-03-25T02:12:47;100106.50;;;5.10;100.00
82931;BME280;72705;53.346;10.248;2024-03-25T02:15:15;100113.94;;;5.06;100.00
82931;BME280;72705;53.346;10.248;2024-03-25T02:17:41;100115.09;;;5.04;100.00
82931;BME280;72705;53.346;10.248;2024-03-25T02:20:06;100124.47;;;5.08;100.00
82931;BME280;72705;53.346;10.248;2024-03-25T02:22:35;100125.63;;;5.05;100.00
82931;BME280;72705;53.346;10.248;2024-03-25T02:25:08;100125.19;;;5.10;100.00
82931;BME280;72705;53.346;10.248;2024-03-25T02:27:35;100120.00;;;5.08;100.00
82931;BME280;72705;53.346;10.248;2024-03-25T02:30:08;100121.53;;;5.11;100.00
82931;BME280;72705;53.346;10.248;2024-03-25T02:32:36;100125.47;;;5.16;100.00
82931;BME280;72705;53.346;10.248;2024-03-25T02:35:07;100130.94;;;5.15;100.00
82931;BME280;72705;53.346;10.248;2024-03-25T02:37:33;100121.94;;;5.16;100.00
82931;BME280;72705;53.346;10.248;2024-03-25T02:39:59;100136.88;;;5.18;100.00
82931;BME280;72705;53.346;10.248;2024-03-25T02:42:29;100130.94;;;5.15;100.00
82931;BME280;72705;53.346;10.248;2024-03-25T02:44:54;100123.38;;;5.10;100.00
82931;BME280;72705;53.346;10.248;2024-03-25T02:47:20;100139.94;;;5.14;100.00
82931;BME280;72705;53.346;10.248;2024-03-25T02:49:46;100131.53;;;5.18;100.00
82931;BME280;72705;53.346;10.248;2024-03-25T02:52:11;100130.50;;;5.19;100.00
82931;BME280;72705;53.346;10.248;2024-03-25T02:54:37;100140.22;;;5.20;100.00
82931;BME280;72705;53.346;10.248;2024-03-25T02:57:02;100138.41;;;5.21;100.00
82931;BME280;72705;53.346;10.248;2024-03-25T02:59:27;100147.81;;;5.25;100.00
82931;BME280;72705;53.346;10.248;2024-03-25T03:01:53;100152.31;;;5.34;100.00
82931;BME280;72705;53.346;10.248;2024-03-25T03:04:18;100159.91;;;5.19;100.00
82931;BME280;72705;53.346;10.248;2024-03-25T03:06:43;100150.94;;;5.11;100.00
82931;BME280;72705;53.346;10.248;2024-03-25T03:09:09;100157.66;;;5.15;100.00
82931;BME280;72705;53.346;10.248;2024-03-25T03:11:34;100155.44;;;5.10;100.00
82931;BME280;72705;53.346;10.248;2024-03-25T03:14:00;100166.66;;;5.14;100.00
82931;BME280;72705;53.346;10.248;2024-03-25T03:16:25;100169.47;;;5.12;100.00
82931;BME280;72705;53.346;10.248;2024-03-25T03:18:50;100174.28;;;5.09;100.00
82931;BME280;72705;53.346;10.248;2024-03-25T03:21:16;100184.00;;;5.10;100.00
82931;BME280;72705;53.346;10.248;2024-03-25T03:23:41;100180.16;;;5.12;100.00
82931;BME280;72705;53.346;10.248;2024-03-25T03:26:06;100178.78;;;5.08;100.00
82931;BME280;72705;53.346;10.248;2024-03-25T03:28:32;100188.34;;;5.11;100.00
82931;BME280;72705;53.346;10.248;2024-03-25T03:30:58;100207.31;;;5.08;100.00
82931;BME280;72705;53.346;10.248;2024-03-25T03:33:23;100203.25;;;5.04;100.00
82931;BME280;72705;53.346;10.248;2024-03-25T03:35:49;100207.63;;;5.05;100.00
82931;BME280;72705;53.346;10.248;2024-03-25T03:38:15;100214.50;;;5.07;100.00
82931;BME280;72705;53.346;10.248;2024-03-25T03:40:40;100221.84;;;5.05;100.00
82931;BME280;72705;53.346;10.248;2024-03-25T03:43:05;100222.13;;;5.12;100.00
82931;BME280;72705;53.346;10.248;2024-03-25T03:45:33;100229.97;;;5.04;100.00
82931;BME280;72705;53.346;10.248;2024-03-25T03:47:58;100209.72;;;4.92;100.00
82931;BME280;72705;53.346;10.248;2024-03-25T03:50:24;100232.50;;;4.96;100.00
82931;BME280;72705;53.346;10.248;2024-03-25T03:52:49;100238.13;;;4.93;100.00
82931;BME280;72705;53.346;10.248;2024-03-25T03:55:15;100241.78;;;4.92;100.00
82931;BME280;72705;53.346;10.248;2024-03-25T03:57:40;100240.09;;;4.91;100.00
82931;BME280;72705;53.346;10.248;2024-03-25T04:00:08;100242.50;;;4.94;100.00
82931;BME280;72705;53.346;10.248;2024-03-25T04:02:34;100251.06;;;4.87;100.00
82931;BME280;72705;53.346;10.248;2024-03-25T04:04:59;100254.72;;;4.86;100.00
82931;BME280;72705;53.346;10.248;2024-03-25T04:07:25;100256.69;;;4.84;100.00
82931;BME280;72705;53.346;10.248;2024-03-25T04:09:54;100259.22;;;4.86;100.00
82931;BME280;72705;53.346;10.248;2024-03-25T04:12:19;100247.69;;;4.85;100.00
82931;BME280;72705;53.346;10.248;2024-03-25T04:14:46;100252.72;;;4.88;100.00
82931;BME280;72705;53.346;10.248;2024-03-25T04:17:12;100259.78;;;4.89;100.00
82931;BME280;72705;53.346;10.248;2024-03-25T04:19:37;100264.84;;;4.93;100.00
82931;BME280;72705;53.346;10.248;2024-03-25T04:22:03;100273.56;;;4.95;100.00
82931;BME280;72705;53.346;10.248;2024-03-25T04:24:28;100274.94;;;4.89;100.00
82931;BME280;72705;53.346;10.248;2024-03-25T04:26:53;100279.31;;;4.90;100.00
82931;BME280;72705;53.346;10.248;2024-03-25T04:29:19;100276.94;;;4.87;100.00
82931;BME280;72705;53.346;10.248;2024-03-25T04:31:45;100289.56;;;4.85;100.00
82931;BME280;72705;53.346;10.248;2024-03-25T04:34:10;100291.84;;;4.89;100.00
82931;BME280;72705;53.346;10.248;2024-03-25T04:36:36;100290.28;;;4.87;100.00
82931;BME280;72705;53.346;10.248;2024-03-25T04:39:01;100297.16;;;4.89;100.00
82931;BME280;72705;53.346;10.248;2024-03-25T04:41:27;100298.59;;;4.94;100.00
82931;BME280;72705;53.346;10.248;2024-03-25T04:43:52;100304.22;;;4.91;100.00
82931;BME280;72705;53.346;10.248;2024-03-25T04:46:17;100325.31;;;4.94;100.00
82931;BME280;72705;53.346;10.248;2024-03-25T04:48:43;100314.06;;;4.90;100.00
82931;BME280;72705;53.346;10.248;2024-03-25T04:51:08;100329.66;;;4.95;100.00
82931;BME280;72705;53.346;10.248;2024-03-25T04:53:35;100338.41;;;4.97;100.00
82931;BME280;72705;53.346;10.248;2024-03-25T04:56:00;100321.91;;;4.82;100.00
82931;BME280;72705;53.346;10.248;2024-03-25T04:58:26;100334.56;;;4.89;100.00
82931;BME280;72705;53.346;10.248;2024-03-25T05:00:51;100320.50;;;4.78;100.00
82931;BME280;72705;53.346;10.248;2024-03-25T05:03:17;100338.63;;;4.84;100.00
82931;BME280;72705;53.346;10.248;2024-03-25T05:05:42;100328.38;;;4.79;100.00
82931;BME280;72705;53.346;10.248;2024-03-25T05:08:07;100325.28;;;4.74;100.00
82931;BME280;72705;53.346;10.248;2024-03-25T05:10:33;100345.81;;;4.83;100.00
82931;BME280;72705;53.346;10.248;2024-03-25T05:12:59;100345.38;;;4.78;100.00
82931;BME280;72705;53.346;10.248;2024-03-25T05:15:24;100339.84;;;4.70;100.00
82931;BME280;72705;53.346;10.248;2024-03-25T05:17:49;100342.69;;;4.69;100.00
82931;BME280;72705;53.346;10.248;2024-03-25T05:20:15;100345.31;;;4.59;100.00
82931;BME280;72705;53.346;10.248;2024-03-25T05:22:40;100353.75;;;4.64;100.00
82931;BME280;72705;53.346;10.248;2024-03-25T05:25:06;100340.38;;;4.55;100.00
82931;BME280;72705;53.346;10.248;2024-03-25T05:27:31;100347.25;;;4.57;100.00
82931;BME280;72705;53.346;10.248;2024-03-25T05:29:56;100355.56;;;4.64;100.00
82931;BME280;72705;53.346;10.248;2024-03-25T05:32:22;100352.22;;;4.62;100.00
82931;BME280;72705;53.346;10.248;2024-03-25T05:34:47;100365.16;;;4.66;100.00
82931;BME280;72705;53.346;10.248;2024-03-25T05:37:16;100368.06;;;4.63;100.00
82931;BME280;72705;53.346;10.248;2024-03-25T05:39:42;100358.22;;;4.54;100.00
82931;BME280;72705;53.346;10.248;2024-03-25T05:42:07;100376.38;;;4.60;100.00
82931;BME280;72705;53.346;10.248;2024-03-25T05:44:33;100370.16;;;4.50;100.00
82931;BME280;72705;53.346;10.248;2024-03-25T05:47:00;100380.75;;;4.61;100.00
82931;BME280;72705;53.346;10.248;2024-03-25T05:49:25;100370.84;;;4.52;100.00
82931;BME280;72705;53.346;10.248;2024-03-25T05:51:51;100372.97;;;4.58;100.00
82931;BME280;72705;53.346;10.248;2024-03-25T05:54:16;100387.59;;;4.54;100.00
82931;BME280;72705;53.346;10.248;2024-03-25T05:56:41;100379.81;;;4.51;100.00
82931;BME280;72705;53.346;10.248;2024-03-25T05:59:07;100380.56;;;4.53;100.00
82931;BME280;72705;53.346;10.248;2024-03-25T06:01:33;100378.16;;;4.50;100.00
82931;BME280;72705;53.346;10.248;2024-03-25T06:03:59;100376.63;;;4.57;100.00
82931;BME280;72705;53.346;10.248;2024-03-25T06:06:24;100377.22;;;4.61;100.00
82931;BME280;72705;53.346;10.248;2024-03-25T06:08:50;100390.59;;;4.70;100.00
82931;BME280;72705;53.346;10.248;2024-03-25T06:11:16;100389.69;;;4.91;100.00
82931;BME280;72705;53.346;10.248;2024-03-25T06:13:41;100386.78;;;6.01;100.00
82931;BME280;72705;53.346;10.248;2024-03-25T06:16:06;100397.91;;;6.62;100.00
82931;BME280;72705;53.346;10.248;2024-03-25T06:18:32;100385.38;;;5.87;100.00
82931;BME280;72705;53.346;10.248;2024-03-25T06:20:57;100400.53;;;5.58;100.00
82931;BME280;72705;53.346;10.248;2024-03-25T06:23:24;100394.47;;;5.37;100.00
82931;BME280;72705;53.346;10.248;2024-03-25T06:25:51;100390.97;;;5.36;100.00
82931;BME280;72705;53.346;10.248;2024-03-25T06:28:18;100409.50;;;5.38;100.00
82931;BME280;72705;53.346;10.248;2024-03-25T06:30:48;100414.94;;;6.05;100.00
82931;BME280;72705;53.346;10.248;2024-03-25T06:33:32;100412.25;;;5.66;100.00
82931;BME280;72705;53.346;10.248;2024-03-25T06:36:17;100416.06;;;5.74;100.00
82931;BME280;72705;53.346;10.248;2024-03-25T06:38:43;100421.94;;;5.58;100.00
82931;BME280;72705;53.346;10.248;2024-03-25T06:41:09;100421.47;;;5.43;100.00
82931;BME280;72705;53.346;10.248;2024-03-25T06:43:35;100417.09;;;5.33;100.00
82931;BME280;72705;53.346;10.248;2024-03-25T06:46:00;100427.53;;;5.36;100.00
82931;BME280;72705;53.346;10.248;2024-03-25T06:48:26;100426.09;;;5.32;100.00
82931;BME280;72705;53.346;10.248;2024-03-25T06:51:00;100430.59;;;5.31;100.00
82931;BME280;72705;53.346;10.248;2024-03-25T06:53:28;100433.16;;;5.33;100.00
82931;BME280;72705;53.346;10.248;2024-03-25T06:55:58;100445.28;;;5.37;100.00
82931;BME280;72705;53.346;10.248;2024-03-25T06:58:25;100448.94;;;5.36;100.00
82931;BME280;72705;53.346;10.248;2024-03-25T07:00:51;100449.78;;;5.36;100.00
82931;BME280;72705;53.346;10.248;2024-03-25T07:03:17;100450.09;;;5.43;100.00
82931;BME280;72705;53.346;10.248;2024-03-25T07:05:47;100446.25;;;5.45;100.00
82931;BME280;72705;53.346;10.248;2024-03-25T07:08:14;100455.44;;;5.52;100.00
82931;BME280;72705;53.346;10.248;2024-03-25T07:10:41;100464.13;;;5.45;100.00
82931;BME280;72705;53.346;10.248;2024-03-25T07:13:07;100450.47;;;5.38;100.00
82931;BME280;72705;53.346;10.248;2024-03-25T07:15:32;100462.06;;;5.48;100.00
82931;BME280;72705;53.346;10.248;2024-03-25T07:17:58;100469.66;;;5.53;100.00
82931;BME280;72705;53.346;10.248;2024-03-25T07:20:23;100469.53;;;5.54;100.00
82931;BME280;72705;53.346;10.248;2024-03-25T07:22:49;100468.38;;;5.57;100.00
82931;BME280;72705;53.346;10.248;2024-03-25T07:25:14;100466.72;;;5.65;100.00
82931;BME280;72705;53.346;10.248;2024-03-25T07:27:40;100467.72;;;5.64;100.00
82931;BME280;72705;53.346;10.248;2024-03-25T07:30:06;100475.88;;;5.63;100.00
82931;BME280;72705;53.346;10.248;2024-03-25T07:32:32;100472.19;;;5.54;100.00
82931;BME280;72705;53.346;10.248;2024-03-25T07:34:58;100475.97;;;5.52;100.00
82931;BME280;72705;53.346;10.248;2024-03-25T07:37:23;100486.81;;;5.50;100.00
82931;BME280;72705;53.346;10.248;2024-03-25T07:39:50;100472.63;;;5.59;100.00
82931;BME280;72705;53.346;10.248;2024-03-25T07:42:17;100472.34;;;5.62;100.00
82931;BME280;72705;53.346;10.248;2024-03-25T07:44:43;100478.84;;;5.60;100.00
82931;BME280;72705;53.346;10.248;2024-03-25T07:47:08;100481.38;;;5.61;100.00
82931;BME280;72705;53.346;10.248;2024-03-25T07:49:34;100481.38;;;5.71;100.00
82931;BME280;72705;53.346;10.248;2024-03-25T07:52:02;100474.31;;;5.60;100.00
82931;BME280;72705;53.346;10.248;2024-03-25T07:54:28;100489.09;;;5.64;100.00
82931;BME280;72705;53.346;10.248;2024-03-25T07:56:54;100489.28;;;5.73;100.00
82931;BME280;72705;53.346;10.248;2024-03-25T07:59:19;100490.97;;;5.74;100.00
82931;BME280;72705;53.346;10.248;2024-03-25T08:01:44;100496.31;;;5.74;100.00
82931;BME280;72705;53.346;10.248;2024-03-25T08:04:10;100492.94;;;5.81;100.00
82931;BME280;72705;53.346;10.248;2024-03-25T08:06:36;100493.38;;;5.86;100.00
82931;BME280;72705;53.346;10.248;2024-03-25T08:09:01;100509.34;;;6.07;100.00
82931;BME280;72705;53.346;10.248;2024-03-25T08:11:30;100498.50;;;6.18;100.00
82931;BME280;72705;53.346;10.248;2024-03-25T08:13:56;100504.97;;;6.25;100.00
82931;BME280;72705;53.346;10.248;2024-03-25T08:16:21;100503.16;;;6.26;100.00
82931;BME280;72705;53.346;10.248;2024-03-25T08:18:46;100508.22;;;6.38;100.00
82931;BME280;72705;53.346;10.248;2024-03-25T08:21:12;100511.47;;;6.52;100.00
82931;BME280;72705;53.346;10.248;2024-03-25T08:23:37;100513.00;;;6.64;100.00
82931;BME280;72705;53.346;10.248;2024-03-25T08:26:04;100523.00;;;6.62;100.00
82931;BME280;72705;53.346;10.248;2024-03-25T08:28:29;100512.00;;;6.65;100.00
82931;BME280;72705;53.346;10.248;2024-03-25T08:30:55;100522.59;;;6.66;100.00
82931;BME280;72705;53.346;10.248;2024-03-25T08:33:20;100521.47;;;6.49;100.00
82931;BME280;72705;53.346;10.248;2024-03-25T08:35:45;100528.66;;;6.59;100.00
82931;BME280;72705;53.346;10.248;2024-03-25T08:38:11;100519.78;;;6.58;100.00
82931;BME280;72705;53.346;10.248;2024-03-25T08:40:36;100528.91;;;6.56;100.00
82931;BME280;72705;53.346;10.248;2024-03-25T08:43:02;100525.69;;;6.52;100.00
82931;BME280;72705;53.346;10.248;2024-03-25T08:45:27;100533.03;;;6.60;100.00
82931;BME280;72705;53.346;10.248;2024-03-25T08:47:52;100535.41;;;6.72;100.00
82931;BME280;72705;53.346;10.248;2024-03-25T08:50:17;100531.44;;;6.76;100.00
82931;BME280;72705;53.346;10.248;2024-03-25T08:52:43;100529.88;;;6.83;100.00
82931;BME280;72705;53.346;10.248;2024-03-25T08:55:08;100533.06;;;7.06;100.00
82931;BME280;72705;53.346;10.248;2024-03-25T08:57:34;100532.78;;;7.09;100.00
82931;BME280;72705;53.346;10.248;2024-03-25T08:59:59;100531.94;;;6.99;99.42
82931;BME280;72705;53.346;10.248;2024-03-25T09:02:25;100533.47;;;7.11;99.62
82931;BME280;72705;53.346;10.248;2024-03-25T09:04:52;100535.28;;;7.20;96.49
82931;BME280;72705;53.346;10.248;2024-03-25T09:07:18;100540.16;;;7.35;93.17
82931;BME280;72705;53.346;10.248;2024-03-25T09:09:43;100537.59;;;7.43;91.33
82931;BME280;72705;53.346;10.248;2024-03-25T09:12:27;100532.56;;;7.85;92.46
82931;BME280;72705;53.346;10.248;2024-03-25T09:14:52;100535.16;;;8.22;90.26
82931;BME280;72705;53.346;10.248;2024-03-25T09:17:18;100531.59;;;8.03;87.37
82931;BME280;72705;53.346;10.248;2024-03-25T09:19:43;100536.94;;;7.86;90.11
82931;BME280;72705;53.346;10.248;2024-03-25T09:22:09;100541.09;;;7.80;90.93
82931;BME280;72705;53.346;10.248;2024-03-25T09:24:35;100547.66;;;7.68;90.87
82931;BME280;72705;53.346;10.248;2024-03-25T09:27:00;100537.50;;;7.62;90.42
82931;BME280;72705;53.346;10.248;2024-03-25T09:29:25;100536.97;;;7.58;91.44
82931;BME280;72705;53.346;10.248;2024-03-25T09:31:51;100536.47;;;7.45;91.36
82931;BME280;72705;53.346;10.248;2024-03-25T09:34:16;100527.69;;;7.53;91.17
82931;BME280;72705;53.346;10.248;2024-03-25T09:36:42;100526.78;;;7.62;90.27
82931;BME280;72705;53.346;10.248;2024-03-25T09:39:07;100538.47;;;7.70;92.04
82931;BME280;72705;53.346;10.248;2024-03-25T09:41:35;100532.19;;;7.80;92.06
82931;BME280;72705;53.346;10.248;2024-03-25T09:44:01;100526.66;;;7.81;91.67
82931;BME280;72705;53.346;10.248;2024-03-25T09:46:30;100536.69;;;8.06;88.10
82931;BME280;72705;53.346;10.248;2024-03-25T09:48:56;100522.88;;;8.01;88.09
82931;BME280;72705;53.346;10.248;2024-03-25T09:51:21;100533.63;;;8.01;87.83
82931;BME280;72705;53.346;10.248;2024-03-25T09:53:47;100533.63;;;8.01;86.73
82931;BME280;72705;53.346;10.248;2024-03-25T09:56:13;100523.25;;;8.06;83.50
82931;BME280;72705;53.346;10.248;2024-03-25T09:58:39;100545.38;;;7.91;82.66
82931;BME280;72705;53.346;10.248;2024-03-25T10:01:06;100538.19;;;7.91;81.76
82931;BME280;72705;53.346;10.248;2024-03-25T10:03:31;100536.81;;;7.87;82.38
82931;BME280;72705;53.346;10.248;2024-03-25T10:05:56;100545.22;;;8.20;83.73
82931;BME280;72705;53.346;10.248;2024-03-25T10:08:22;100536.94;;;8.13;84.01
82931;BME280;72705;53.346;10.248;2024-03-25T10:10:48;100547.09;;;8.09;84.64
82931;BME280;72705;53.346;10.248;2024-03-25T10:13:15;100547.34;;;8.16;85.08
82931;BME280;72705;53.346;10.248;2024-03-25T10:15:40;100537.22;;;8.28;84.49
82931;BME280;72705;53.346;10.248;2024-03-25T10:18:06;100548.09;;;8.36;83.38
82931;BME280;72705;53.346;10.248;2024-03-25T10:20:31;100538.94;;;8.64;80.19
82931;BME280;72705;53.346;10.248;2024-03-25T10:22:57;100536.56;;;8.61;78.66
82931;BME280;72705;53.346;10.248;2024-03-25T10:25:27;100539.31;;;8.69;79.51
82931;BME280;72705;53.346;10.248;2024-03-25T10:28:00;100546.06;;;8.73;79.74
82931;BME280;72705;53.346;10.248;2024-03-25T10:30:29;100540.13;;;8.87;77.07
82931;BME280;72705;53.346;10.248;2024-03-25T10:33:07;100546.72;;;8.93;74.53
82931;BME280;72705;53.346;10.248;2024-03-25T10:35:37;100553.03;;;8.84;74.10
82931;BME280;72705;53.346;10.248;2024-03-25T10:40:31;100552.84;;;8.42;76.71
82931;BME280;72705;53.346;10.248;2024-03-25T10:45:31;100549.59;;;8.21;84.42
82931;BME280;72705;53.346;10.248;2024-03-25T10:48:03;100552.94;;;8.05;87.17
82931;BME280;72705;53.346;10.248;2024-03-25T10:50:29;100551.94;;;8.06;85.55
82931;BME280;72705;53.346;10.248;2024-03-25T10:52:57;100561.09;;;8.13;84.71
82931;BME280;72705;53.346;10.248;2024-03-25T10:55:23;100554.41;;;7.99;82.33
82931;BME280;72705;53.346;10.248;2024-03-25T10:57:50;100550.00;;;8.43;80.96
82931;BME280;72705;53.346;10.248;2024-03-25T11:00:16;100561.94;;;8.84;77.56
82931;BME280;72705;53.346;10.248;2024-03-25T11:02:43;100564.97;;;8.81;75.51
82931;BME280;72705;53.346;10.248;2024-03-25T11:05:11;100556.38;;;9.04;75.96
82931;BME280;72705;53.346;10.248;2024-03-25T11:07:37;100565.59;;;9.27;78.56
82931;BME280;72705;53.346;10.248;2024-03-25T11:10:07;100554.44;;;8.88;76.29
82931;BME280;72705;53.346;10.248;2024-03-25T11:12:36;100555.47;;;8.69;76.47
82931;BME280;72705;53.346;10.248;2024-03-25T11:15:03;100556.34;;;8.78;78.21
82931;BME280;72705;53.346;10.248;2024-03-25T11:17:29;100549.00;;;8.62;77.94
82931;BME280;72705;53.346;10.248;2024-03-25T11:22:33;100558.44;;;8.66;78.10
82931;BME280;72705;53.346;10.248;2024-03-25T11:25:05;100557.31;;;8.51;76.40
82931;BME280;72705;53.346;10.248;2024-03-25T11:27:32;100546.41;;;8.35;78.72
82931;BME280;72705;53.346;10.248;2024-03-25T11:29:57;100558.84;;;8.36;77.66
82931;BME280;72705;53.346;10.248;2024-03-25T11:32:23;100558.53;;;8.39;77.73
82931;BME280;72705;53.346;10.248;2024-03-25T11:34:50;100563.97;;;8.47;79.40
82931;BME280;72705;53.346;10.248;2024-03-25T11:37:15;100566.03;;;8.88;80.54
82931;BME280;72705;53.346;10.248;2024-03-25T11:39:41;100553.97;;;9.52;76.46
82931;BME280;72705;53.346;10.248;2024-03-25T11:42:08;100555.69;;;9.27;73.30
82931;BME280;72705;53.346;10.248;2024-03-25T11:44:38;100555.16;;;8.98;71.56
82931;BME280;72705;53.346;10.248;2024-03-25T11:47:07;100550.53;;;9.34;71.94
82931;BME280;72705;53.346;10.248;2024-03-25T11:49:38;100553.72;;;9.71;72.24
82931;BME280;72705;53.346;10.248;2024-03-25T11:52:06;100553.50;;;10.07;68.06
82931;BME280;72705;53.346;10.248;2024-03-25T11:54:32;100533.66;;;10.08;68.22
82931;BME280;72705;53.346;10.248;2024-03-25T11:56:58;100542.41;;;10.10;65.43
82931;BME280;72705;53.346;10.248;2024-03-25T11:59:24;100543.13;;;10.20;61.82
82931;BME280;72705;53.346;10.248;2024-03-25T12:01:50;100535.03;;;10.12;63.83
82931;BME280;72705;53.346;10.248;2024-03-25T12:04:17;100538.81;;;10.35;65.06
82931;BME280;72705;53.346;10.248;2024-03-25T12:06:43;100545.56;;;10.96;63.85
82931;BME280;72705;53.346;10.248;2024-03-25T12:09:11;100536.78;;;11.02;59.84
82931;BME280;72705;53.346;10.248;2024-03-25T12:11:55;100534.06;;;10.94;62.18
82931;BME280;72705;53.346;10.248;2024-03-25T12:14:22;100532.22;;;10.62;61.64
82931;BME280;72705;53.346;10.248;2024-03-25T12:16:48;100520.38;;;10.14;61.80
82931;BME280;72705;53.346;10.248;2024-03-25T12:19:15;100531.78;;;10.00;60.91
82931;BME280;72705;53.346;10.248;2024-03-25T12:21:41;100538.84;;;10.01;63.79
82931;BME280;72705;53.346;10.248;2024-03-25T12:24:07;100523.81;;;10.57;62.70
82931;BME280;72705;53.346;10.248;2024-03-25T12:26:34;100530.22;;;10.97;61.12
82931;BME280;72705;53.346;10.248;2024-03-25T12:28:59;100527.34;;;10.82;61.69
82931;BME280;72705;53.346;10.248;2024-03-25T12:31:25;100532.41;;;10.52;62.35
82931;BME280;72705;53.346;10.248;2024-03-25T12:33:50;100546.41;;;9.90;63.89
82931;BME280;72705;53.346;10.248;2024-03-25T12:36:16;100528.34;;;9.40;65.89
82931;BME280;72705;53.346;10.248;2024-03-25T12:38:41;100546.00;;;9.09;68.96
82931;BME280;72705;53.346;10.248;2024-03-25T12:41:09;100549.69;;;8.82;69.99
82931;BME280;72705;53.346;10.248;2024-03-25T12:43:36;100537.28;;;8.45;75.24
82931;BME280;72705;53.346;10.248;2024-03-25T12:46:02;100556.63;;;8.22;80.87